METAR Data
IDs: Format: Raw Decoded Include TAF

Data at: 1314 UTC 20 Oct 2021

KPGV 201255Z AUTO 00000KT 7SM CLR 13/10 A3024 RMK AO2
KPGV 201235Z AUTO 00000KT 7SM CLR 11/10 A3023 RMK AO2
KPGV 201215Z AUTO 00000KT 7SM CLR 11/09 A3022 RMK AO2
KPGV 201155Z AUTO 00000KT 7SM CLR 09/08 A3021 RMK AO2
KPGV 201135Z AUTO 00000KT 10SM CLR 09/08 A3021 RMK AO2
KPGV 201115Z AUTO 00000KT 7SM CLR 08/07 A3021 RMK AO2
KPGV 201055Z AUTO 00000KT 7SM CLR 08/08 A3021 RMK AO2
KPGV 201035Z AUTO 00000KT 10SM CLR 08/07 A3021 RMK AO2
KPGV 201015Z AUTO 00000KT 7SM CLR 10/08 A3021 RMK AO2
KPGV 200955Z AUTO 00000KT 10SM CLR 09/08 A3021 RMK AO2
KPGV 200935Z AUTO 00000KT 10SM CLR 09/08 A3021 RMK AO2
KPGV 200915Z AUTO 00000KT 7SM CLR 09/08 A3020 RMK AO2
KPGV 200855Z AUTO 00000KT 10SM CLR 09/07 A3019 RMK AO2
KPGV 200835Z AUTO 00000KT 10SM CLR 10/08 A3019 RMK AO2
KPGV 200815Z AUTO 00000KT 10SM CLR 09/08 A3019 RMK AO2
KPGV 200755Z AUTO 00000KT 7SM CLR 09/07 A3019 RMK AO2
KPGV 200735Z AUTO 00000KT 10SM CLR 09/08 A3020 RMK AO2
KPGV 200715Z AUTO 00000KT 10SM CLR 09/07 A3019 RMK AO2
KPGV 200655Z AUTO 00000KT 10SM CLR 09/07 A3020 RMK AO2
KPGV 200635Z AUTO 00000KT 10SM CLR 09/07 A3020 RMK AO2
KPGV 200615Z AUTO 00000KT 10SM CLR 10/07 A3020 RMK AO2
KPGV 200555Z AUTO 00000KT 10SM CLR 10/07 A3020 RMK AO2
KPGV 200535Z AUTO 00000KT 10SM CLR 10/07 A3020 RMK AO2
KPGV 200515Z AUTO 00000KT 10SM CLR 09/07 A3020 RMK AO2
KPGV 200455Z AUTO 00000KT 10SM CLR 10/07 A3020 RMK AO2
KPGV 200435Z AUTO 23003KT 7SM CLR 10/07 A3020 RMK AO2
KPGV 200415Z AUTO 00000KT 10SM CLR 10/08 A3020 RMK AO2
KPGV 200355Z AUTO 00000KT 10SM CLR 10/08 A3021 RMK AO2
KPGV 200335Z AUTO 00000KT 10SM CLR 10/08 A3021 RMK AO2
KPGV 200315Z AUTO 00000KT 10SM CLR 09/08 A3021 RMK AO2
KPGV 200255Z AUTO 00000KT 7SM CLR 10/07 A3021 RMK AO2
KPGV 200235Z AUTO 00000KT 10SM CLR 11/08 A3020 RMK AO2
KPGV 200215Z AUTO 00000KT 10SM CLR 10/07 A3020 RMK AO2
KPGV 200155Z AUTO 00000KT 7SM CLR 11/09 A3019 RMK AO2
KPGV 200135Z AUTO 00000KT 10SM CLR 11/10 A3020 RMK AO2
KPGV 200115Z AUTO 00000KT 10SM CLR 11/08 A3019 RMK AO2
KPGV 200055Z AUTO 00000KT 10SM CLR 10/08 A3019 RMK AO2
KPGV 200035Z AUTO 00000KT 10SM CLR 12/09 A3019 RMK AO2
KPGV 200015Z AUTO 00000KT 10SM CLR 11/08 A3019 RMK AO2
KPGV 192355Z AUTO 00000KT 7SM CLR 12/08 A3020 RMK AO2
KPGV 192335Z AUTO 00000KT 10SM CLR 12/09 A3019 RMK AO2
KPGV 192315Z AUTO 00000KT 10SM CLR 13/08 A3019 RMK AO2
KPGV 192255Z AUTO 00000KT 10SM CLR 15/08 A3018 RMK AO2
KPGV 192235Z AUTO 00000KT 7SM CLR 16/07 A3018 RMK AO2
KPGV 192215Z AUTO 00000KT 10SM CLR 18/06 A3017 RMK AO2
KPGV 192155Z AUTO 00000KT 10SM CLR 21/03 A3017 RMK AO2
KPGV 192135Z AUTO 00000KT 10SM CLR 22/05 A3017 RMK AO2
KPGV 192115Z AUTO 24005KT 7SM CLR 22/03 A3017 RMK AO2
KPGV 192055Z AUTO 22005KT 10SM CLR 23/03 A3017 RMK AO2
KPGV 192035Z AUTO 22004KT 10SM CLR 23/03 A3017 RMK AO2
KPGV 192015Z AUTO 24004KT 10SM CLR 23/02 A3017 RMK AO2
KPGV 191955Z AUTO 25006KT 10SM CLR 23/03 A3018 RMK AO2
KPGV 191935Z AUTO 31003KT 10SM CLR 23/03 A3018 RMK AO2
KPGV 191915Z AUTO 24005KT 10SM CLR 23/03 A3018 RMK AO2
KPGV 191855Z AUTO 32003KT 10SM CLR 23/03 A3019 RMK AO2
KPGV 191835Z AUTO 00000KT 10SM CLR 23/03 A3019 RMK AO2
KPGV 191815Z AUTO 00000KT 10SM CLR 22/03 A3020 RMK AO2
KPGV 191755Z AUTO 31004KT 10SM CLR 23/03 A3021 RMK AO2
KPGV 191735Z AUTO 00000KT 10SM CLR 22/02 A3021 RMK AO2
KPGV 191715Z AUTO 32003KT 10SM CLR 22/03 A3022 RMK AO2
KPGV 191655Z AUTO 00000KT 10SM CLR 21/02 A3023 RMK AO2
KPGV 191635Z AUTO 27003KT 10SM CLR 21/03 A3024 RMK AO2
KPGV 191615Z AUTO 00000KT 10SM CLR 21/04 A3024 RMK AO2
KPGV 191555Z AUTO 00000KT 10SM CLR 20/05 A3025 RMK AO2
KPGV 191535Z AUTO 24003KT 10SM CLR 20/05 A3025 RMK AO2
KPGV 191515Z AUTO 00000KT 10SM CLR 19/05 A3025 RMK AO2
KPGV 191455Z AUTO 00000KT 10SM CLR 19/07 A3025 RMK AO2
KPGV 191435Z AUTO 00000KT 7SM CLR 17/06 A3025 RMK AO2
KPGV 191415Z AUTO 00000KT 10SM CLR 16/07 A3025 RMK AO2
KPGV 191355Z AUTO 00000KT 10SM CLR 15/07 A3025 RMK AO2
KPGV 191335Z AUTO 00000KT 7SM CLR 13/07 A3024 RMK AO2
KPGV 191315Z AUTO 00000KT 10SM CLR 12/08 A3024 RMK AO2
KPGV 191255Z AUTO 00000KT 10SM CLR 11/07 A3023 RMK AO2
KPGV 191235Z AUTO 00000KT 7SM CLR 09/08 A3022 RMK AO2
KPGV 191215Z AUTO 00000KT 7SM CLR 07/07 A3021 RMK AO2
KPGV 191155Z AUTO 00000KT 7SM CLR 06/06 A3021 RMK AO2
KPGV 191135Z AUTO 00000KT 7SM CLR 05/05 A3020 RMK AO2
KPGV 191115Z AUTO 00000KT 2 1/2SM BR CLR 05/05 A3020 RMK AO2
KPGV 191055Z AUTO 00000KT 2 1/2SM BR CLR 05/05 A3020 RMK AO2 VIS 3/4V5
KPGV 191035Z AUTO 00000KT 1 1/2SM BR VV007 05/05 A3019 RMK AO2
KPGV 191015Z AUTO 00000KT 1 1/4SM BR VV007 06/06 A3019 RMK AO2
KPGV 190955Z AUTO 00000KT 2 1/2SM BR CLR 06/06 A3018 RMK AO2
KPGV 190935Z AUTO 00000KT 7SM CLR 07/06 A3018 RMK AO2
KPGV 190915Z AUTO 00000KT 5SM BR CLR 06/06 A3017 RMK AO2
KPGV 190855Z AUTO 00000KT 3SM BR CLR 06/06 A3016 RMK AO2
KPGV 190835Z AUTO 00000KT 7SM CLR 07/06 A3016 RMK AO2
KPGV 190815Z AUTO 00000KT 7SM CLR 07/07 A3016 RMK AO2
KPGV 190755Z AUTO 00000KT 10SM CLR 07/06 A3016 RMK AO2
KPGV 190735Z AUTO 00000KT 10SM CLR 07/06 A3015 RMK AO2
KPGV 190715Z AUTO 00000KT 10SM CLR 08/07 A3014 RMK AO2
KPGV 190655Z AUTO 00000KT 10SM CLR 07/06 A3015 RMK AO2
KPGV 190635Z AUTO 00000KT 10SM CLR 08/07 A3014 RMK AO2
KPGV 190615Z AUTO 00000KT 7SM CLR 08/07 A3014 RMK AO2
KPGV 190555Z AUTO 00000KT 10SM CLR 09/07 A3014 RMK AO2
KPGV 190535Z AUTO 00000KT 7SM CLR 10/06 A3014 RMK AO2
KPGV 190515Z AUTO 00000KT 10SM CLR 10/06 A3013 RMK AO2
KPGV 190455Z AUTO 00000KT 10SM CLR 09/06 A3013 RMK AO2
KPGV 190435Z AUTO 00000KT 10SM CLR 08/07 A3013 RMK AO2
KPGV 190415Z AUTO 00000KT 10SM CLR 08/07 A3013 RMK AO2
KPGV 190355Z AUTO 00000KT 10SM CLR 08/06 A3013 RMK AO2
KPGV 190335Z AUTO 00000KT 10SM CLR 10/07 A3013 RMK AO2
KPGV 190315Z AUTO 00000KT 10SM CLR 10/06 A3013 RMK AO2
KPGV 190255Z AUTO 00000KT 10SM CLR 10/06 A3013 RMK AO2
KPGV 190235Z AUTO 00000KT 10SM CLR 11/06 A3012 RMK AO2
KPGV 190215Z AUTO 00000KT 7SM CLR 12/06 A3012 RMK AO2
KPGV 190155Z AUTO 00000KT 7SM CLR 10/06 A3011 RMK AO2
KPGV 190135Z AUTO 00000KT 10SM CLR 12/06 A3011 RMK AO2
KPGV 190115Z AUTO 24003KT 10SM CLR 12/07 A3011 RMK AO2